Gulkana, AK

7:37 AM AKST on March 06, 2015 (GMT -0900)
Gulkana | Change Station
CLOSE
Current Station
Airport
Location: Gulkana,
Elevation: 1578 ft
Nearby Weather Stations
Active Advisory: Winter Weather Advisory Active Notice: Record Report

Elev 1578 ft 62.16 °N, 145.46 °W | Updated 44 minutes ago

Scattered Clouds
Scattered Clouds
31 °F
Feels Like 21 °F
N
13
Wind Variable Wind from South

Today
High -- | Low -- °F
--% Chance of Precip.
Yesterday
High -- | Low -- °F
Precip. -- in
7:28 AM 6:18 PM
Full, 99% visible
Pressure 30.12 in
Visibility 10.0 miles
Clouds Few 8500 ft
Scattered Clouds 10000 ft
Windchill 21 °F
Dew Point 23 °F
Humidity 72%
Rainfall 0.00 in
Snow Depth Not available.
UV 0 out of 12
Pollen Not available.
Air Quality Not available.
Flu Activity Not available.
METAR PAGK 061553Z AUTO 17011KT 10SM FEW085 SCT100 M01/M05 A3004 RMK AO2 SLP200 T10061050 TSNO

More Conditions Fewer Conditions

Pressure 30.12 in
Visibility 10.0 miles
Clouds Few 8500 ft
Scattered Clouds 10000 ft
Windchill 21 °F
Dew Point 23 °F
Humidity 72%
Rainfall 0.00 in
Snow Depth Not available.
UV 0 out of 12
Pollen Not available.
Air Quality Not available.
Flu Activity Not available.
METAR PAGK 061553Z AUTO 17011KT 10SM FEW085 SCT100 M01/M05 A3004 RMK AO2 SLP200 T10061050 TSNO

More Conditions Fewer Conditions

10-Day Weather Forecast

Almanac

Astronomy

Mar. 06, 2015 Rise Set
Actual Time
Civil Twilight
Nautical Twilight
Astronomical Twilight
Moon
Length of Visible Light
Length of Day
Tomorrow will be .
, % of the Moon is Illuminated

Today's Extremes

State Highs State Lows

Community

WunderPhotos

Upload Photos

1,803,334 photos uploaded!

WunderBlogs® & News

Nearby

Air Quality

  Air Quality AQ Index Pollutant
Not available.

Snow Depth

Station Depth Elevation

Earthquake Activity

City Distance Mag. Time & Date
Minimum magnitude displayed is 2.5.

Coastal Water Temperatures

Place Temperature

Nearby Weather Stations

Winter Weather Advisory
Statement as of 6:58 AM AKST on March 06, 2015

... Winter Weather Advisory for remains in effect from midnight
tonight to 5 PM akst Saturday north of Glennallen...

* snow... 5 to 11 inches.

* Timing... snow will develop by late this evening then become
heavy at times beginning early Saturday morning. Snow will
diminish by late Saturday afternoon. Heaviest snow accumulation
will be in the Paxson area.

* Impacts... travel may be difficult. Visibilities will be limited
in heavy snowfall.

Precautionary/preparedness actions...

A Winter Weather Advisory for snow means that periods of snow
will cause primarily travel difficulties. Be prepared for snow
covered roads and limited visibilities... and use caution while
driving.